Etusivu
METAR-TAF:

METAR-TAF

Lentoasemat :

Norway Housen lentoasema

Norway House, Manitoba, Kanada

Leveyspiiri: 53-58N, Pituuspiiri: 097-50W, korkeus merenpinnasta: 223 m

Tämänhetkinen sää

Tämä raportti tehtiin 25 minuuttia sitten, kello 15.00 UTC
Tuuli 4 kn idästä/kaakosta, vaihdellen idän/koillisen ja etelän/kaakon välillä
Lämpötila 13°C
Kosteus 38%
Ilmanpaine 1024 hPa
Näkyvyys: 14.5 km
selkeää

METAR: CYNE 061500Z AUTO 11004KT 060V150 9SM CLR 13/M01 A3024 RMK SLP249

Aika: 10:25 (15:25 UTC)

Sääennuste

Tämä raportti tehtiin 2 tuntia ja 47 minuuttia sitten, kello 12.38 UTC
Ennuste voimassa 06. päivästä klo 13 UTC - 07. päivään klo 01 UTC
Tuuli 8 kn idästä
Näkyvyys: 10 km
selkeää

TAF: CYNE 061238Z 0613/0701 08008KT P6SM SKC RMK FCST BASED ON AUTO OBS. NXT FCST BY 061900Z

Säähavainnot ja -ennusteet yli 4000 lentoasemalta (METAR- ja TAF-raportit).

Käytössä olevat sääasemat on merkitty karttaan keltaisilla ja punaisilla pisteillä.

Aseta hiiri pisteen päälle nähdäksesi sääaseman nimen.

Klikkaa sitten nähdäksesi säähavainnot ja -ennusteet.

Kartan vaihtaminen: klikkaa mustalla rastilla varustettuja vihreitä pisteitä, niin voit zoomata sisään; viivalla varustettua vihreää pistettä, niin voit zoomata ulos tai vihreitä nuolia, niin pääset viereisille kartoille.


METAR-TAF: